createdAt,value
2018-10-06T00:01:50.769Z,7.62
2018-10-06T00:04:19.985Z,7.58
2018-10-06T00:06:49.197Z,7.57
2018-10-06T00:09:18.375Z,7.55
2018-10-06T00:11:47.638Z,7.49
2018-10-06T00:14:17.106Z,7.44
2018-10-06T00:16:46.491Z,7.46
2018-10-06T00:19:15.721Z,7.45
2018-10-06T00:21:44.966Z,7.45
2018-10-06T00:24:14.161Z,7.43
2018-10-06T00:26:43.380Z,7.39
2018-10-06T00:29:12.701Z,7.37
2018-10-06T00:31:41.868Z,7.34
2018-10-06T00:34:11.070Z,7.29
2018-10-06T00:36:40.570Z,7.29
2018-10-06T00:39:09.955Z,7.27
2018-10-06T00:41:39.189Z,7.26
2018-10-06T00:44:08.493Z,7.27
2018-10-06T00:46:37.758Z,7.28
2018-10-06T00:49:07.821Z,7.18
2018-10-06T00:51:37.023Z,7.15
2018-10-06T00:54:06.731Z,7.05
2018-10-06T00:56:36.017Z,7.08
2018-10-06T00:59:05.257Z,6.98
2018-10-06T01:01:34.630Z,6.94
2018-10-06T01:04:03.940Z,6.90
2018-10-06T01:06:33.141Z,6.92
2018-10-06T01:09:02.309Z,6.91
2018-10-06T01:11:31.507Z,6.91
2018-10-06T01:14:00.681Z,6.84
2018-10-06T01:16:29.902Z,6.83
2018-10-06T01:18:59.105Z,6.82
2018-10-06T01:21:28.396Z,6.83
2018-10-06T01:23:58.084Z,6.83
2018-10-06T01:26:27.298Z,6.81
2018-10-06T01:28:56.605Z,6.75
2018-10-06T01:31:25.803Z,6.72
2018-10-06T01:33:55.005Z,6.71
2018-10-06T01:36:25.309Z,6.66
2018-10-06T01:38:54.516Z,6.68
2018-10-06T01:41:30.449Z,6.69
2018-10-06T01:44:00.425Z,6.70
2018-10-06T01:46:29.607Z,6.72
2018-10-06T01:48:58.837Z,6.72
2018-10-06T01:51:28.070Z,6.68
2018-10-06T01:53:57.280Z,6.68
2018-10-06T01:56:26.730Z,6.67
2018-10-06T01:58:55.892Z,6.67
2018-10-06T02:01:25.050Z,6.67
2018-10-06T02:03:54.299Z,6.57
2018-10-06T02:06:23.467Z,6.55
2018-10-06T02:08:52.733Z,6.56
2018-10-06T02:11:22.174Z,6.51
2018-10-06T02:13:51.372Z,6.51
2018-10-06T02:16:20.574Z,6.54
2018-10-06T02:18:49.789Z,6.54
2018-10-06T02:21:18.993Z,6.54
2018-10-06T02:23:48.200Z,6.55
2018-10-06T02:26:17.666Z,6.54
2018-10-06T02:28:47.005Z,6.50
2018-10-06T02:31:16.172Z,6.47
2018-10-06T02:33:46.694Z,6.43
2018-10-06T02:36:15.916Z,6.39
2018-10-06T02:38:45.095Z,6.38
2018-10-06T02:41:14.320Z,6.41
2018-10-06T02:43:43.512Z,6.42
2018-10-06T02:46:12.690Z,6.41
2018-10-06T02:48:41.930Z,6.40
2018-10-06T02:51:11.095Z,6.40
2018-10-06T02:53:40.286Z,6.44
2018-10-06T02:56:09.530Z,6.47
2018-10-06T02:58:38.968Z,6.47
2018-10-06T03:01:09.258Z,6.46
2018-10-06T03:03:38.519Z,6.48
2018-10-06T03:06:07.965Z,6.48
2018-10-06T03:08:37.197Z,6.47
2018-10-06T03:11:06.566Z,6.38
2018-10-06T03:13:35.816Z,6.31
2018-10-06T03:16:05.243Z,6.24
2018-10-06T03:18:34.949Z,6.20
2018-10-06T03:21:04.318Z,6.19
2018-10-06T03:23:33.558Z,6.21
2018-10-06T03:26:02.784Z,6.24
2018-10-06T03:28:31.956Z,6.26
2018-10-06T03:31:01.530Z,6.25
2018-10-06T03:33:30.753Z,6.25
2018-10-06T03:35:59.977Z,6.20
2018-10-06T03:38:29.230Z,6.11
2018-10-06T03:40:58.434Z,6.07
2018-10-06T03:43:28.301Z,6.06
2018-10-06T03:45:57.499Z,6.06
2018-10-06T03:48:26.654Z,6.04
2018-10-06T03:50:55.847Z,6.02
2018-10-06T03:53:25.280Z,6.01
2018-10-06T03:55:54.523Z,6.02
2018-10-06T03:58:23.835Z,6.05
2018-10-06T04:00:53.002Z,5.98
2018-10-06T04:03:22.293Z,5.91
2018-10-06T04:05:51.548Z,5.83
2018-10-06T04:08:20.738Z,5.81
2018-10-06T04:10:49.938Z,5.81
2018-10-06T04:13:19.127Z,5.68
2018-10-06T04:15:48.342Z,5.70
2018-10-06T04:18:17.564Z,5.73
2018-10-06T04:20:46.761Z,5.75
2018-10-06T04:23:15.963Z,5.79
2018-10-06T04:25:45.148Z,5.80
2018-10-06T04:28:14.628Z,5.81
2018-10-06T04:30:43.733Z,5.80
2018-10-06T04:33:12.981Z,5.82
2018-10-06T04:35:42.131Z,5.83
2018-10-06T04:38:11.337Z,5.81
2018-10-06T04:40:40.574Z,5.80
2018-10-06T04:43:09.835Z,5.82
2018-10-06T04:45:39.129Z,5.81
2018-10-06T04:48:08.401Z,5.82
2018-10-06T04:50:37.625Z,5.83
2018-10-06T04:53:07.076Z,5.78
2018-10-06T04:55:36.366Z,5.75
2018-10-06T04:58:08.697Z,5.72
2018-10-06T05:00:38.621Z,5.77
2018-10-06T05:03:08.112Z,5.79
2018-10-06T05:05:37.326Z,5.73
2018-10-06T05:08:06.805Z,5.68
2018-10-06T05:10:36.029Z,5.70
2018-10-06T05:13:05.240Z,5.68
2018-10-06T05:15:34.473Z,5.66
2018-10-06T05:18:03.910Z,5.62
2018-10-06T05:20:33.205Z,5.64
2018-10-06T05:23:02.421Z,5.66
2018-10-06T05:25:31.616Z,5.71
2018-10-06T05:28:00.806Z,5.76
2018-10-06T05:30:30.041Z,5.84
2018-10-06T05:32:59.377Z,5.88
2018-10-06T05:35:28.626Z,5.94
2018-10-06T05:37:57.847Z,6.04
2018-10-06T05:40:27.043Z,6.10
2018-10-06T05:42:56.311Z,6.19
2018-10-06T05:45:25.529Z,6.19
2018-10-06T05:47:54.717Z,6.19
2018-10-06T05:50:23.911Z,6.24
2018-10-06T05:52:53.398Z,6.28
2018-10-06T05:55:22.626Z,6.31
2018-10-06T05:57:51.939Z,6.34
2018-10-06T06:00:21.208Z,6.35
2018-10-06T06:02:50.468Z,6.45
2018-10-06T06:05:19.724Z,6.60
2018-10-06T06:07:48.938Z,6.74
2018-10-06T06:10:18.115Z,6.77
2018-10-06T06:12:47.335Z,6.79
2018-10-06T06:15:16.577Z,6.81
2018-10-06T06:17:45.785Z,6.81
2018-10-06T06:20:15.002Z,6.85
2018-10-06T06:22:44.278Z,6.96
2018-10-06T06:25:13.725Z,7.09
2018-10-06T06:27:43.305Z,7.26
2018-10-06T06:30:12.550Z,7.42
2018-10-06T06:32:41.826Z,7.58
2018-10-06T06:35:11.013Z,7.73
2018-10-06T06:37:40.315Z,7.89
2018-10-06T06:40:09.528Z,8.01
2018-10-06T06:42:38.809Z,8.19
2018-10-06T06:45:08.512Z,8.35
2018-10-06T06:47:37.766Z,8.54
2018-10-06T06:50:07.052Z,8.56
2018-10-06T06:52:36.295Z,8.74
2018-10-06T06:55:06.052Z,8.86
2018-10-06T06:57:35.480Z,8.98
2018-10-06T07:00:04.930Z,9.12
2018-10-06T07:02:34.196Z,9.68
2018-10-06T07:05:03.451Z,9.75
2018-10-06T07:07:32.644Z,9.77
2018-10-06T07:10:02.691Z,9.84
2018-10-06T07:12:38.539Z,9.90
2018-10-06T07:15:07.980Z,9.92
2018-10-06T07:17:37.191Z,9.85
2018-10-06T07:20:06.547Z,9.88
2018-10-06T07:22:35.825Z,9.82
2018-10-06T07:25:05.017Z,9.83
2018-10-06T07:27:34.369Z,10.02
2018-10-06T07:30:03.614Z,10.24
2018-10-06T07:32:32.934Z,10.32
2018-10-06T07:35:02.175Z,10.41
2018-10-06T07:37:31.741Z,10.44
2018-10-06T07:40:00.978Z,10.40
2018-10-06T07:42:30.320Z,10.47
2018-10-06T07:44:59.570Z,10.64
2018-10-06T07:47:28.764Z,10.67
2018-10-06T07:49:58.052Z,10.74
2018-10-06T07:52:27.363Z,10.80
2018-10-06T07:54:56.679Z,10.94
2018-10-06T07:57:26.009Z,11.05
2018-10-06T07:59:55.225Z,11.22
2018-10-06T08:02:25.074Z,11.55
2018-10-06T08:04:55.735Z,11.74
2018-10-06T08:07:25.131Z,11.89
2018-10-06T08:09:54.848Z,12.09
2018-10-06T08:12:24.802Z,12.14
2018-10-06T08:14:54.807Z,12.18
2018-10-06T08:17:24.336Z,12.26
2018-10-06T08:19:54.283Z,12.33
2018-10-06T08:22:50.072Z,12.36
2018-10-06T08:25:22.424Z,12.44
2018-10-06T08:27:51.708Z,12.63
2018-10-06T08:30:20.922Z,12.86
2018-10-06T08:32:50.233Z,12.94
2018-10-06T08:35:19.490Z,12.94
2018-10-06T08:37:48.785Z,13.02
2018-10-06T08:40:18.044Z,13.09
2018-10-06T08:42:47.467Z,13.28
2018-10-06T08:45:16.904Z,13.31
2018-10-06T08:47:46.194Z,13.31
2018-10-06T08:50:16.016Z,13.54
2018-10-06T08:52:45.537Z,13.81
2018-10-06T08:55:15.321Z,13.86
2018-10-06T08:57:44.681Z,13.92
2018-10-06T09:00:13.970Z,13.96
2018-10-06T09:02:43.252Z,14.13
2018-10-06T09:05:12.529Z,14.39
2018-10-06T09:07:41.665Z,14.59
2018-10-06T09:10:11.783Z,14.65
2018-10-06T09:12:54.635Z,14.59
2018-10-06T09:15:26.217Z,14.80
2018-10-06T09:17:55.460Z,15.04
2018-10-06T09:20:24.561Z,15.06
2018-10-06T09:22:54.120Z,15.14
2018-10-06T09:25:23.263Z,15.14
2018-10-06T09:27:52.457Z,15.08
2018-10-06T09:30:21.744Z,15.26
2018-10-06T09:32:50.881Z,15.33
2018-10-06T09:35:20.102Z,15.55
2018-10-06T09:37:49.301Z,15.82
2018-10-06T09:40:18.486Z,16.10
2018-10-06T09:42:48.852Z,16.02
2018-10-06T09:45:18.137Z,16.38
2018-10-06T09:47:47.328Z,16.91
2018-10-06T09:50:16.462Z,17.28
2018-10-06T09:52:45.636Z,17.33
2018-10-06T09:55:14.819Z,17.29
2018-10-06T09:57:43.988Z,17.02
2018-10-06T10:00:13.289Z,17.06
2018-10-06T10:02:47.729Z,17.31
2018-10-06T10:05:50.574Z,17.24
2018-10-06T10:08:20.090Z,17.33
2018-10-06T10:10:50.153Z,17.54
2018-10-06T10:13:19.858Z,17.76
2018-10-06T10:15:49.166Z,17.69
2018-10-06T10:18:18.664Z,18.08
2018-10-06T10:20:48.007Z,18.47
2018-10-06T10:23:17.206Z,18.52
2018-10-06T10:25:46.396Z,18.47
2018-10-06T10:28:15.712Z,18.63
2018-10-06T10:30:44.866Z,18.73
2018-10-06T10:33:14.121Z,18.69
2018-10-06T10:35:43.387Z,18.73
2018-10-06T10:38:12.658Z,18.76
2018-10-06T10:40:42.009Z,19.00
2018-10-06T10:43:11.633Z,18.83
2018-10-06T10:45:40.845Z,18.93
2018-10-06T10:48:10.381Z,19.09
2018-10-06T10:50:39.564Z,19.02
2018-10-06T10:53:09.042Z,19.25
2018-10-06T10:55:38.378Z,19.61
2018-10-06T10:58:07.622Z,19.76
2018-10-06T11:00:36.844Z,19.75
2018-10-06T11:03:06.124Z,19.40
2018-10-06T11:05:35.480Z,19.40
2018-10-06T11:08:04.841Z,19.81
2018-10-06T11:10:34.354Z,18.78
2018-10-06T11:13:05.643Z,19.72
2018-10-06T11:15:35.033Z,19.51
2018-10-06T11:18:04.434Z,19.43
2018-10-06T11:20:33.865Z,19.38
2018-10-06T11:23:03.242Z,19.46
2018-10-06T11:25:33.366Z,19.68
2018-10-06T11:28:02.868Z,19.73
2018-10-06T11:30:32.166Z,19.98
2018-10-06T11:33:01.581Z,19.92
2018-10-06T11:35:30.946Z,20.02
2018-10-06T11:38:00.402Z,20.22
2018-10-06T11:40:32.908Z,20.48
2018-10-06T11:43:02.217Z,20.41
2018-10-06T11:45:31.567Z,20.65
2018-10-06T11:48:01.059Z,20.60
2018-10-06T11:50:30.413Z,20.60
2018-10-06T11:52:59.961Z,20.67
2018-10-06T11:55:29.373Z,20.97
2018-10-06T11:57:58.641Z,20.97
2018-10-06T12:00:28.185Z,20.94
2018-10-06T12:02:59.034Z,20.82
2018-10-06T12:05:28.375Z,20.58
2018-10-06T12:07:57.722Z,20.63
2018-10-06T12:10:30.847Z,20.84
2018-10-06T12:13:00.136Z,20.90
2018-10-06T12:15:30.013Z,21.21
2018-10-06T12:17:59.691Z,21.24
2018-10-06T12:20:29.118Z,21.28
2018-10-06T12:23:01.785Z,21.09
2018-10-06T12:25:31.726Z,21.10
2018-10-06T12:28:01.544Z,21.10
2018-10-06T12:30:30.917Z,21.03
2018-10-06T12:33:00.261Z,20.81
2018-10-06T12:35:29.754Z,20.81
2018-10-06T12:37:59.470Z,20.44
2018-10-06T12:40:34.154Z,20.18
2018-10-06T12:43:03.627Z,20.09
2018-10-06T12:45:33.820Z,19.83
2018-10-06T12:48:03.325Z,19.73
2018-10-06T12:50:32.897Z,19.68
2018-10-06T12:53:02.337Z,19.87
2018-10-06T12:55:31.600Z,19.99
2018-10-06T12:58:00.938Z,20.18
2018-10-06T13:00:30.243Z,20.33
2018-10-06T13:02:59.628Z,20.49
2018-10-06T13:05:29.184Z,20.54
2018-10-06T13:07:58.512Z,20.57
2018-10-06T13:10:27.962Z,20.47
2018-10-06T13:12:58.101Z,20.31
2018-10-06T13:15:27.464Z,20.26
2018-10-06T13:17:57.295Z,20.30
2018-10-06T13:20:26.530Z,20.38
2018-10-06T13:22:56.061Z,20.48
2018-10-06T13:25:25.449Z,20.71
2018-10-06T13:27:54.717Z,20.90
2018-10-06T13:30:24.050Z,20.99
2018-10-06T13:32:53.670Z,21.18
2018-10-06T13:35:23.026Z,21.37
2018-10-06T13:37:53.281Z,21.47
2018-10-06T13:40:22.694Z,21.47
2018-10-06T13:42:52.434Z,21.20
2018-10-06T13:45:22.372Z,21.21
2018-10-06T13:47:51.605Z,21.10
2018-10-06T13:50:21.141Z,21.09
2018-10-06T13:52:50.430Z,20.96
2018-10-06T13:55:19.719Z,20.83
2018-10-06T13:57:53.584Z,20.71
2018-10-06T14:00:23.145Z,20.72
2018-10-06T14:02:52.502Z,20.70
2018-10-06T14:05:21.793Z,20.70
2018-10-06T14:07:50.559Z,20.85
2018-10-06T14:10:19.925Z,21.00
2018-10-06T14:12:50.003Z,20.93
2018-10-06T14:15:19.374Z,20.82
2018-10-06T14:17:48.861Z,20.65
2018-10-06T14:20:18.070Z,20.56
2018-10-06T14:22:47.417Z,20.41
2018-10-06T14:25:16.737Z,20.26
2018-10-06T14:27:46.096Z,20.16
2018-10-06T14:30:15.594Z,20.05
2018-10-06T14:32:45.196Z,20.06
2018-10-06T14:35:14.845Z,20.07
2018-10-06T14:37:44.341Z,20.15
2018-10-06T14:40:13.671Z,20.19
2018-10-06T14:42:43.042Z,20.27
2018-10-06T14:45:12.515Z,20.34
2018-10-06T14:47:42.027Z,20.34
2018-10-06T14:50:11.377Z,20.28
2018-10-06T14:52:40.766Z,20.23
2018-10-06T14:55:10.100Z,20.21
2018-10-06T14:57:39.642Z,20.21
2018-10-06T15:00:09.360Z,20.13
2018-10-06T15:02:38.564Z,20.06
2018-10-06T15:05:07.967Z,19.95
2018-10-06T15:07:37.452Z,19.90
2018-10-06T15:10:06.650Z,19.84
2018-10-06T15:12:35.930Z,19.72
2018-10-06T15:15:05.287Z,19.61
2018-10-06T15:17:34.518Z,19.52
2018-10-06T15:20:03.739Z,19.49
2018-10-06T15:22:32.909Z,19.44
2018-10-06T15:25:02.152Z,19.44
2018-10-06T15:27:31.354Z,19.40
2018-10-06T15:30:00.512Z,19.34
2018-10-06T15:32:29.729Z,19.32
2018-10-06T15:34:58.914Z,19.17
2018-10-06T15:37:28.127Z,19.08
2018-10-06T15:39:57.340Z,18.97
2018-10-06T15:42:26.527Z,18.91
2018-10-06T15:44:55.773Z,18.87
2018-10-06T15:47:25.042Z,18.78
2018-10-06T15:49:54.250Z,18.65
2018-10-06T15:52:23.466Z,18.60
2018-10-06T15:54:52.660Z,18.57
2018-10-06T15:57:21.839Z,18.52
2018-10-06T15:59:51.030Z,18.46
2018-10-06T16:02:20.202Z,18.41
2018-10-06T16:04:49.381Z,18.32
2018-10-06T16:07:18.564Z,18.27
2018-10-06T16:09:47.785Z,18.19
2018-10-06T16:12:16.989Z,18.09
2018-10-06T16:14:46.146Z,18.01
2018-10-06T16:17:15.280Z,17.89
2018-10-06T16:19:44.453Z,17.79
2018-10-06T16:22:13.695Z,17.67
2018-10-06T16:24:42.823Z,17.50
2018-10-06T16:27:11.999Z,17.32
2018-10-06T16:29:41.249Z,17.21
2018-10-06T16:32:10.467Z,17.06
2018-10-06T16:34:39.637Z,16.94
2018-10-06T16:37:08.922Z,16.82
2018-10-06T16:39:39.677Z,16.65
2018-10-06T16:42:08.848Z,16.49
2018-10-06T16:44:38.064Z,16.43
2018-10-06T16:47:07.347Z,16.35
2018-10-06T16:49:36.514Z,16.25
2018-10-06T16:52:05.780Z,16.16
2018-10-06T16:54:35.082Z,16.10
2018-10-06T16:57:04.361Z,16.08
2018-10-06T16:59:34.544Z,16.03
2018-10-06T17:02:03.914Z,15.95
2018-10-06T17:04:32.967Z,15.91
2018-10-06T17:07:02.171Z,15.89
2018-10-06T17:09:31.411Z,15.85
2018-10-06T17:12:00.562Z,15.79
2018-10-06T17:14:29.744Z,15.72
2018-10-06T17:16:58.908Z,15.65
2018-10-06T17:19:28.105Z,15.59
2018-10-06T17:21:57.319Z,15.55
2018-10-06T17:24:26.555Z,15.51
2018-10-06T17:26:55.712Z,15.43
2018-10-06T17:29:24.907Z,15.38
2018-10-06T17:31:54.655Z,15.33
2018-10-06T17:34:23.809Z,15.31
2018-10-06T17:36:53.057Z,15.30
2018-10-06T17:39:22.466Z,15.31
2018-10-06T17:41:52.390Z,15.28
2018-10-06T17:44:21.699Z,15.28
2018-10-06T17:46:50.889Z,15.26
2018-10-06T17:49:20.038Z,15.18
2018-10-06T17:51:49.236Z,15.12
2018-10-06T17:54:18.382Z,15.09
2018-10-06T17:56:47.543Z,15.01
2018-10-06T17:59:16.704Z,14.94
2018-10-06T18:01:45.860Z,14.88
2018-10-06T18:04:15.195Z,14.85
2018-10-06T18:06:44.360Z,14.83
2018-10-06T18:09:13.561Z,14.80
2018-10-06T18:11:42.733Z,14.78
2018-10-06T18:14:11.949Z,14.73
2018-10-06T18:16:41.111Z,14.72
2018-10-06T18:19:10.697Z,14.69
2018-10-06T18:21:39.896Z,14.68
2018-10-06T18:24:09.037Z,14.59
2018-10-06T18:26:38.429Z,14.54
2018-10-06T18:29:07.906Z,14.51
2018-10-06T18:31:36.993Z,14.48
2018-10-06T18:34:06.147Z,14.44
2018-10-06T18:36:35.662Z,14.42
2018-10-06T18:39:06.160Z,14.38
2018-10-06T18:41:35.390Z,14.34
2018-10-06T18:44:06.149Z,14.29
2018-10-06T18:46:35.585Z,14.26
2018-10-06T18:49:04.802Z,14.23
2018-10-06T18:51:34.226Z,14.21
2018-10-06T18:54:03.378Z,14.10
2018-10-06T18:56:32.536Z,14.02
2018-10-06T18:59:01.715Z,13.97
2018-10-06T19:01:30.846Z,13.98
2018-10-06T19:04:00.067Z,13.95
2018-10-06T19:06:29.202Z,13.94
2018-10-06T19:08:58.361Z,13.90
2018-10-06T19:11:27.527Z,13.89
2018-10-06T19:13:56.750Z,13.86
2018-10-06T19:16:26.026Z,13.81
2018-10-06T19:18:55.131Z,13.81
2018-10-06T19:21:24.293Z,13.76
2018-10-06T19:23:53.473Z,13.74
2018-10-06T19:26:22.665Z,13.71
2018-10-06T19:28:51.844Z,13.71
2018-10-06T19:31:21.122Z,13.65
2018-10-06T19:33:50.294Z,13.65
2018-10-06T19:36:19.487Z,13.68
2018-10-06T19:38:48.673Z,13.71
2018-10-06T19:41:17.842Z,13.70
2018-10-06T19:43:47.481Z,13.71
2018-10-06T19:46:16.712Z,13.70
2018-10-06T19:48:45.905Z,13.67
2018-10-06T19:51:15.117Z,13.64
2018-10-06T19:53:44.333Z,13.63
2018-10-06T19:56:13.502Z,13.60
2018-10-06T19:58:42.679Z,13.56
2018-10-06T20:01:11.831Z,13.55
2018-10-06T20:03:41.004Z,13.54
2018-10-06T20:06:10.190Z,13.48
2018-10-06T20:08:39.370Z,13.44
2018-10-06T20:11:09.402Z,13.38
2018-10-06T20:13:38.582Z,13.33
2018-10-06T20:16:08.165Z,13.27
2018-10-06T20:18:37.349Z,13.26
2018-10-06T20:21:06.769Z,13.24
2018-10-06T20:23:35.918Z,13.20
2018-10-06T20:26:05.934Z,13.11
2018-10-06T20:28:35.105Z,13.07
2018-10-06T20:31:04.303Z,13.01
2018-10-06T20:33:33.488Z,12.89
2018-10-06T20:36:02.633Z,12.84
2018-10-06T20:38:31.908Z,12.79
2018-10-06T20:41:01.061Z,12.77
2018-10-06T20:43:30.862Z,12.77
2018-10-06T20:46:00.045Z,12.74
2018-10-06T20:48:29.205Z,12.77
2018-10-06T20:50:58.417Z,12.77
2018-10-06T20:53:27.703Z,12.75
2018-10-06T20:55:56.807Z,12.77
2018-10-06T20:58:26.226Z,12.78
2018-10-06T21:00:55.394Z,12.76
2018-10-06T21:03:24.552Z,12.79
2018-10-06T21:05:53.745Z,12.83
2018-10-06T21:08:22.901Z,12.82
2018-10-06T21:10:52.142Z,12.81
2018-10-06T21:13:21.256Z,12.80
2018-10-06T21:15:50.608Z,12.78
2018-10-06T21:18:19.814Z,12.80
2018-10-06T21:20:48.998Z,12.80
2018-10-06T21:23:18.250Z,12.80
2018-10-06T21:25:47.477Z,12.80
2018-10-06T21:28:16.680Z,12.79
2018-10-06T21:30:45.973Z,12.76
2018-10-06T21:33:15.234Z,12.74
2018-10-06T21:35:44.454Z,12.70
2018-10-06T21:38:13.622Z,12.71
2018-10-06T21:40:42.895Z,12.74
2018-10-06T21:43:12.101Z,12.74
2018-10-06T21:45:41.432Z,12.71
2018-10-06T21:48:10.580Z,12.72
2018-10-06T21:50:40.003Z,12.74
2018-10-06T21:53:09.316Z,12.73
2018-10-06T21:55:38.509Z,12.73
2018-10-06T21:58:07.806Z,12.73
2018-10-06T22:00:37.036Z,12.71
2018-10-06T22:03:06.342Z,12.69
2018-10-06T22:05:35.533Z,12.70
2018-10-06T22:08:04.701Z,12.69
2018-10-06T22:10:33.841Z,12.73
2018-10-06T22:13:03.009Z,12.72
2018-10-06T22:15:32.164Z,12.72
2018-10-06T22:18:01.475Z,12.74
2018-10-06T22:20:30.656Z,12.73
2018-10-06T22:22:59.904Z,12.68
2018-10-06T22:25:29.115Z,12.65
2018-10-06T22:27:58.351Z,12.68
2018-10-06T22:30:27.541Z,12.68
2018-10-06T22:32:56.781Z,12.74
2018-10-06T22:35:29.013Z,12.75
2018-10-06T22:37:58.248Z,12.77
2018-10-06T22:40:27.417Z,12.77
2018-10-06T22:42:56.590Z,12.77
2018-10-06T22:45:25.733Z,12.74
2018-10-06T22:47:54.958Z,12.74
2018-10-06T22:50:24.162Z,12.74
2018-10-06T22:52:53.405Z,12.71
2018-10-06T22:55:22.545Z,12.71
2018-10-06T22:57:51.786Z,12.67
2018-10-06T23:00:21.034Z,12.68
2018-10-06T23:02:50.264Z,12.69
2018-10-06T23:05:19.529Z,12.68
2018-10-06T23:07:48.785Z,12.69
2018-10-06T23:10:17.969Z,12.72
2018-10-06T23:12:47.197Z,12.71
2018-10-06T23:15:16.402Z,12.73
2018-10-06T23:17:45.631Z,12.75
2018-10-06T23:20:14.867Z,12.74
2018-10-06T23:22:44.076Z,12.72
2018-10-06T23:25:13.271Z,12.69
2018-10-06T23:27:42.477Z,12.71
2018-10-06T23:30:11.669Z,12.69
2018-10-06T23:32:41.063Z,12.68
2018-10-06T23:35:10.271Z,12.67
2018-10-06T23:37:39.424Z,12.67
2018-10-06T23:40:08.688Z,12.65
2018-10-06T23:42:37.968Z,12.68
2018-10-06T23:45:07.402Z,12.65
2018-10-06T23:47:36.755Z,12.68
2018-10-06T23:50:06.194Z,12.67
2018-10-06T23:52:35.683Z,12.66
2018-10-06T23:55:04.960Z,12.64
2018-10-06T23:57:34.203Z,12.65
